createdAt,value
2022-12-15T00:00:29.556Z,200.13
2022-12-15T00:01:20.749Z,206.95
2022-12-15T00:02:11.821Z,214.15
2022-12-15T00:03:03.110Z,208.52
2022-12-15T00:03:53.897Z,210.10
2022-12-15T00:04:44.652Z,209.10
2022-12-15T00:05:35.579Z,216.90
2022-12-15T00:06:26.429Z,210.85
2022-12-15T00:07:17.430Z,210.45
2022-12-15T00:08:08.411Z,209.60
2022-12-15T00:08:59.457Z,196.52
2022-12-15T00:09:50.102Z,214.90
2022-12-15T00:10:41.107Z,212.45
2022-12-15T00:11:31.977Z,212.35
2022-12-15T00:12:22.996Z,234.07
2022-12-15T00:13:13.766Z,223.52
2022-12-15T00:14:04.867Z,204.75
2022-12-15T00:14:55.775Z,219.93
2022-12-15T00:15:46.611Z,215.27
2022-12-15T00:16:37.237Z,208.43
2022-12-15T00:17:28.041Z,190.98
2022-12-15T00:18:23.178Z,210.93
2022-12-15T00:19:13.941Z,213.60
2022-12-15T00:20:05.133Z,199.15
2022-12-15T00:20:56.284Z,208.52
2022-12-15T00:21:47.153Z,207.65
2022-12-15T00:22:38.209Z,206.30
2022-12-15T00:23:30.198Z,214.55
2022-12-15T00:24:21.019Z,217.52
2022-12-15T00:25:11.947Z,208.98
2022-12-15T00:26:02.963Z,199.00
2022-12-15T00:26:53.795Z,217.60
2022-12-15T00:27:45.474Z,214.93
2022-12-15T00:28:36.431Z,206.35
2022-12-15T00:29:27.457Z,221.23
2022-12-15T00:30:18.607Z,197.82
2022-12-15T00:31:09.759Z,203.88
2022-12-15T00:32:00.728Z,212.38
2022-12-15T00:32:51.772Z,212.90
2022-12-15T00:33:42.390Z,212.48
2022-12-15T00:34:33.398Z,207.55
2022-12-15T00:35:24.576Z,210.60
2022-12-15T00:36:17.093Z,208.20
2022-12-15T00:37:08.158Z,204.85
2022-12-15T00:37:58.814Z,225.60
2022-12-15T00:38:46.365Z,212.02
2022-12-15T00:39:18.729Z,212.73
2022-12-15T00:39:59.500Z,215.88
2022-12-15T00:40:31.816Z,213.18
2022-12-15T00:41:04.506Z,205.35
2022-12-15T00:41:36.961Z,208.95
2022-12-15T00:42:09.814Z,204.82
2022-12-15T00:42:42.151Z,200.65
2022-12-15T00:43:14.355Z,200.48
2022-12-15T00:43:47.028Z,193.57
2022-12-15T00:44:20.893Z,185.50
2022-12-15T00:44:53.283Z,192.63
2022-12-15T00:45:45.521Z,189.15
2022-12-15T00:46:36.637Z,193.23
2022-12-15T00:47:09.044Z,196.93
2022-12-15T00:47:41.237Z,183.77
2022-12-15T00:48:13.576Z,195.05
2022-12-15T00:48:46.085Z,194.68
2022-12-15T00:49:37.065Z,186.25
2022-12-15T00:50:28.040Z,211.45
2022-12-15T00:51:00.338Z,205.02
2022-12-15T00:51:51.605Z,201.65
2022-12-15T00:52:42.906Z,208.13
2022-12-15T00:53:33.616Z,205.38
2022-12-15T00:54:24.731Z,214.60
2022-12-15T00:55:15.761Z,195.50
2022-12-15T00:56:06.850Z,207.15
2022-12-15T00:56:57.743Z,201.93
2022-12-15T00:57:48.640Z,206.85
2022-12-15T00:58:39.621Z,204.48
2022-12-15T00:59:30.880Z,205.48
2022-12-15T01:00:22.973Z,199.95
2022-12-15T01:01:14.165Z,214.25
2022-12-15T01:02:04.998Z,199.23
2022-12-15T01:02:56.290Z,217.95
2022-12-15T01:03:47.635Z,222.27
2022-12-15T01:04:38.473Z,233.07
2022-12-15T01:05:29.723Z,212.40
2022-12-15T01:06:24.366Z,217.98
2022-12-15T01:07:15.552Z,204.15
2022-12-15T01:08:06.360Z,209.80
2022-12-15T01:08:57.100Z,211.60
2022-12-15T01:09:47.954Z,209.18
2022-12-15T01:10:38.912Z,210.10
2022-12-15T01:11:29.752Z,203.65
2022-12-15T01:12:20.687Z,200.73
2022-12-15T01:13:11.921Z,212.27
2022-12-15T01:14:02.610Z,204.38
2022-12-15T01:14:53.596Z,203.95
2022-12-15T01:15:44.751Z,210.93
2022-12-15T01:16:36.311Z,207.90
2022-12-15T01:17:27.563Z,212.50
2022-12-15T01:18:18.525Z,205.48
2022-12-15T01:19:09.347Z,207.95
2022-12-15T01:20:00.415Z,201.57
2022-12-15T01:20:35.134Z,210.27
2022-12-15T01:21:10.905Z,210.70
2022-12-15T01:21:43.279Z,211.43
2022-12-15T01:22:15.622Z,187.13
2022-12-15T01:22:53.167Z,194.43
2022-12-15T01:23:25.622Z,206.10
2022-12-15T01:23:57.915Z,201.82
2022-12-15T01:24:30.399Z,196.60
2022-12-15T01:25:02.740Z,194.30
2022-12-15T01:25:35.033Z,199.98
2022-12-15T01:26:07.460Z,190.00
2022-12-15T01:26:39.740Z,191.35
2022-12-15T01:27:12.073Z,191.77
2022-12-15T01:27:44.632Z,187.45
2022-12-15T01:28:17.003Z,185.18
2022-12-15T01:28:49.488Z,188.15
2022-12-15T01:29:22.036Z,185.02
2022-12-15T01:29:54.590Z,176.35
2022-12-15T01:30:27.692Z,197.40
2022-12-15T01:31:00.053Z,198.18
2022-12-15T01:31:32.348Z,190.75
2022-12-15T01:32:04.620Z,185.48
2022-12-15T01:32:40.342Z,187.52
2022-12-15T01:33:15.495Z,190.32
2022-12-15T01:33:47.942Z,191.15
2022-12-15T01:34:22.217Z,191.93
2022-12-15T01:34:55.012Z,189.85
2022-12-15T01:35:27.949Z,187.60
2022-12-15T01:36:01.097Z,185.45
2022-12-15T01:36:33.426Z,184.85
2022-12-15T01:37:05.859Z,181.98
2022-12-15T01:37:38.349Z,169.52
2022-12-15T01:38:11.075Z,197.10
2022-12-15T01:38:43.576Z,194.38
2022-12-15T01:39:16.606Z,180.00
2022-12-15T01:40:07.708Z,184.00
2022-12-15T01:40:46.164Z,182.35
2022-12-15T01:41:18.662Z,177.10
2022-12-15T01:41:50.961Z,192.15
2022-12-15T01:42:23.543Z,199.77
2022-12-15T01:42:55.895Z,182.20
2022-12-15T01:43:30.730Z,201.05
2022-12-15T01:44:20.252Z,191.00
2022-12-15T01:44:53.956Z,199.48
2022-12-15T01:45:29.034Z,196.38
2022-12-15T01:46:01.313Z,196.07
2022-12-15T01:46:34.155Z,183.02
2022-12-15T01:47:09.686Z,196.35
2022-12-15T01:47:42.122Z,197.18
2022-12-15T01:48:17.868Z,185.80
2022-12-15T01:48:57.668Z,185.05
2022-12-15T01:49:31.659Z,198.38
2022-12-15T01:50:04.240Z,191.32
2022-12-15T01:50:40.422Z,185.65
2022-12-15T01:51:31.149Z,194.43
2022-12-15T01:52:06.394Z,200.40
2022-12-15T01:52:39.063Z,197.43
2022-12-15T01:53:12.109Z,187.77
2022-12-15T01:54:02.957Z,198.48
2022-12-15T01:54:42.345Z,204.80
2022-12-15T01:55:15.803Z,199.55
2022-12-15T01:55:49.768Z,199.27
2022-12-15T01:56:23.799Z,194.85
2022-12-15T01:56:59.512Z,194.65
2022-12-15T01:57:32.850Z,198.35
2022-12-15T01:58:07.086Z,204.07
2022-12-15T01:58:42.124Z,193.57
2022-12-15T01:59:16.950Z,188.40
2022-12-15T01:59:53.905Z,192.90
2022-12-15T02:00:26.705Z,201.23
2022-12-15T02:01:01.279Z,205.45
2022-12-15T02:01:33.910Z,194.80
2022-12-15T02:02:06.406Z,201.02
2022-12-15T02:02:40.567Z,189.05
2022-12-15T02:03:13.585Z,192.00
2022-12-15T02:03:47.459Z,197.07
2022-12-15T02:04:21.071Z,202.63
2022-12-15T02:04:57.024Z,187.07
2022-12-15T02:05:30.535Z,190.57
2022-12-15T02:06:03.546Z,189.68
2022-12-15T02:06:36.430Z,192.55
2022-12-15T02:07:13.644Z,182.02
2022-12-15T02:07:46.094Z,189.10
2022-12-15T02:08:18.651Z,196.43
2022-12-15T02:08:53.079Z,189.75
2022-12-15T02:09:26.084Z,186.73
2022-12-15T02:10:00.439Z,186.35
2022-12-15T02:10:42.527Z,194.40
2022-12-15T02:11:41.336Z,191.55
2022-12-15T02:12:31.581Z,207.68
2022-12-15T02:13:16.338Z,210.02
2022-12-15T02:14:02.227Z,193.38
2022-12-15T02:14:42.384Z,196.20
2022-12-15T02:15:24.611Z,204.10
2022-12-15T02:16:02.504Z,210.73
2022-12-15T02:16:42.096Z,198.13
2022-12-15T02:17:20.874Z,203.80
2022-12-15T02:17:56.126Z,201.82
2022-12-15T02:18:32.549Z,199.90
2022-12-15T02:19:17.078Z,192.38
2022-12-15T02:20:08.093Z,203.05
2022-12-15T02:20:43.572Z,211.18
2022-12-15T02:21:20.475Z,196.48
2022-12-15T02:22:12.436Z,197.73
2022-12-15T02:22:50.449Z,196.52
2022-12-15T02:23:35.493Z,203.27
2022-12-15T02:24:27.490Z,189.65
2022-12-15T02:25:18.409Z,211.27
2022-12-15T02:26:00.117Z,212.50
2022-12-15T02:26:41.824Z,213.77
2022-12-15T02:27:35.516Z,204.50
2022-12-15T02:28:15.646Z,199.88
2022-12-15T02:29:38.249Z,208.82
2022-12-15T02:30:17.268Z,206.30
2022-12-15T02:31:14.934Z,203.93
2022-12-15T02:31:52.836Z,198.10
2022-12-15T02:32:26.734Z,202.57
2022-12-15T02:32:59.130Z,208.38
2022-12-15T02:33:33.052Z,182.30
2022-12-15T02:34:08.934Z,212.27
2022-12-15T02:34:43.784Z,195.52
2022-12-15T02:35:21.280Z,201.55
2022-12-15T02:36:22.480Z,202.75
2022-12-15T02:36:57.046Z,205.48
2022-12-15T02:37:29.506Z,208.80
2022-12-15T02:38:01.868Z,212.00
2022-12-15T02:38:36.227Z,203.57
2022-12-15T02:39:08.718Z,199.40
2022-12-15T02:39:41.036Z,199.43
2022-12-15T02:40:13.527Z,193.40
2022-12-15T02:40:46.083Z,182.35
2022-12-15T02:41:36.802Z,200.55
2022-12-15T02:42:10.735Z,199.52
2022-12-15T02:42:45.615Z,203.98
2022-12-15T02:43:18.170Z,185.50
2022-12-15T02:43:50.475Z,191.68
2022-12-15T02:44:35.560Z,188.60
2022-12-15T02:45:10.103Z,209.48
2022-12-15T02:45:53.075Z,197.10
2022-12-15T02:46:32.236Z,202.30
2022-12-15T02:47:05.293Z,200.40
2022-12-15T02:47:39.650Z,205.63
2022-12-15T02:48:16.668Z,184.95
2022-12-15T02:48:51.807Z,190.07
2022-12-15T02:49:42.026Z,188.98
2022-12-15T02:50:26.631Z,210.65
2022-12-15T02:51:12.034Z,208.07
2022-12-15T02:51:56.594Z,198.63
2022-12-15T02:52:31.618Z,204.18
2022-12-15T02:53:04.149Z,211.27
2022-12-15T02:53:42.130Z,204.68
2022-12-15T02:54:41.590Z,203.75
2022-12-15T02:55:17.001Z,210.77
2022-12-15T02:55:50.373Z,198.77
2022-12-15T02:56:28.341Z,210.18
2022-12-15T02:57:15.545Z,204.20
2022-12-15T02:57:48.060Z,210.98
2022-12-15T02:58:44.519Z,223.82
2022-12-15T02:59:23.644Z,226.27
2022-12-15T03:00:01.918Z,223.35
2022-12-15T03:00:38.510Z,216.52
2022-12-15T03:01:19.170Z,202.75
2022-12-15T03:01:54.485Z,210.52
2022-12-15T03:02:28.897Z,205.70
2022-12-15T03:03:02.048Z,195.18
2022-12-15T03:03:35.767Z,193.02
2022-12-15T03:04:09.276Z,203.93
2022-12-15T03:04:43.002Z,209.10
2022-12-15T03:05:16.450Z,201.98
2022-12-15T03:05:53.643Z,196.90
2022-12-15T03:06:27.171Z,215.30
2022-12-15T03:07:04.268Z,198.32
2022-12-15T03:07:36.764Z,198.85
2022-12-15T03:08:09.555Z,189.77
2022-12-15T03:08:42.615Z,201.45
2022-12-15T03:09:22.449Z,197.15
2022-12-15T03:09:59.333Z,197.68
2022-12-15T03:10:31.810Z,204.70
2022-12-15T03:11:04.122Z,205.43
2022-12-15T03:11:37.137Z,194.27
2022-12-15T03:12:10.710Z,198.73
2022-12-15T03:12:43.089Z,199.23
2022-12-15T03:13:15.857Z,185.52
2022-12-15T03:13:49.886Z,199.68
2022-12-15T03:14:22.381Z,203.90
2022-12-15T03:14:54.917Z,202.70
2022-12-15T03:15:31.821Z,194.13
2022-12-15T03:16:07.894Z,208.38
2022-12-15T03:16:40.552Z,204.68
2022-12-15T03:17:13.126Z,196.48
2022-12-15T03:17:45.626Z,197.30
2022-12-15T03:18:18.296Z,185.88
2022-12-15T03:18:51.474Z,193.27
2022-12-15T03:19:24.443Z,202.65
2022-12-15T03:19:56.910Z,196.40
2022-12-15T03:20:29.272Z,199.52
2022-12-15T03:21:01.651Z,196.45
2022-12-15T03:21:33.993Z,187.52
2022-12-15T03:22:06.276Z,195.80
2022-12-15T03:22:39.167Z,193.98
2022-12-15T03:23:11.865Z,205.13
2022-12-15T03:23:44.142Z,196.20
2022-12-15T03:24:16.862Z,185.10
2022-12-15T03:24:49.254Z,198.40
2022-12-15T03:25:21.678Z,206.40
2022-12-15T03:25:54.117Z,202.98
2022-12-15T03:26:26.516Z,200.23
2022-12-15T03:26:58.955Z,195.25
2022-12-15T03:27:31.313Z,194.10
2022-12-15T03:28:03.633Z,189.90
2022-12-15T03:28:36.116Z,205.45
2022-12-15T03:29:08.779Z,199.15
2022-12-15T03:29:41.255Z,195.48
2022-12-15T03:30:13.958Z,197.23
2022-12-15T03:30:46.268Z,202.20
2022-12-15T03:31:23.076Z,202.60
2022-12-15T03:31:55.647Z,204.68
2022-12-15T03:32:28.540Z,194.07
2022-12-15T03:33:01.044Z,202.07
2022-12-15T03:33:34.237Z,201.02
2022-12-15T03:34:06.891Z,196.95
2022-12-15T03:34:39.551Z,186.00
2022-12-15T03:35:13.350Z,190.70
2022-12-15T03:35:45.604Z,199.75
2022-12-15T03:36:17.877Z,203.27
2022-12-15T03:36:50.254Z,201.63
2022-12-15T03:37:22.562Z,191.25
2022-12-15T03:37:55.393Z,179.77
2022-12-15T03:38:27.949Z,194.45
2022-12-15T03:39:00.430Z,188.05
2022-12-15T03:39:32.777Z,182.40
2022-12-15T03:40:06.625Z,184.38
2022-12-15T03:40:39.171Z,190.57
2022-12-15T03:41:11.583Z,185.05
2022-12-15T03:41:44.306Z,187.68
2022-12-15T03:42:36.614Z,190.07
2022-12-15T03:43:09.012Z,205.35
2022-12-15T03:43:41.355Z,190.20
2022-12-15T03:44:13.638Z,199.48
2022-12-15T03:44:45.980Z,186.75
2022-12-15T03:45:28.547Z,195.93
2022-12-15T03:46:00.995Z,183.35
2022-12-15T03:46:33.345Z,195.30
2022-12-15T03:47:06.136Z,193.27
2022-12-15T03:47:41.311Z,201.02
2022-12-15T03:48:13.911Z,201.00
2022-12-15T03:48:46.247Z,191.70
2022-12-15T03:49:18.662Z,195.38
2022-12-15T03:49:50.947Z,196.57
2022-12-15T03:50:25.162Z,186.18
2022-12-15T03:50:57.525Z,190.90
2022-12-15T03:51:30.095Z,190.73
2022-12-15T03:52:02.477Z,188.45
2022-12-15T03:52:34.974Z,204.13
2022-12-15T03:53:07.360Z,184.43
2022-12-15T03:53:40.091Z,201.70
2022-12-15T03:54:13.446Z,204.32
2022-12-15T03:54:45.892Z,192.43
2022-12-15T03:55:18.782Z,185.18
2022-12-15T03:55:51.112Z,202.68
2022-12-15T03:56:23.473Z,193.55
2022-12-15T03:56:55.909Z,198.43
2022-12-15T03:57:28.162Z,199.10
2022-12-15T03:58:00.954Z,196.95
2022-12-15T03:58:33.215Z,190.82
2022-12-15T03:59:05.685Z,184.15
2022-12-15T03:59:38.361Z,192.20
2022-12-15T04:00:11.860Z,190.02
2022-12-15T04:00:47.133Z,187.63
2022-12-15T04:01:22.412Z,184.10
2022-12-15T04:01:54.915Z,201.48
2022-12-15T04:02:27.821Z,202.23
2022-12-15T04:03:00.536Z,197.93
2022-12-15T04:03:33.522Z,179.27
2022-12-15T04:04:06.309Z,178.73
2022-12-15T04:04:38.823Z,194.60
2022-12-15T04:05:16.049Z,192.40
2022-12-15T04:05:48.512Z,197.90
2022-12-15T04:06:21.153Z,193.38
2022-12-15T04:06:53.340Z,199.05
2022-12-15T04:07:25.624Z,203.20
2022-12-15T04:07:59.101Z,201.05
2022-12-15T04:08:31.758Z,200.43
2022-12-15T04:09:04.257Z,195.05
2022-12-15T04:09:37.062Z,192.80
2022-12-15T04:10:09.766Z,202.52
2022-12-15T04:10:43.697Z,196.15
2022-12-15T04:11:16.290Z,177.77
2022-12-15T04:11:48.640Z,198.43
2022-12-15T04:12:20.974Z,182.52
2022-12-15T04:13:03.369Z,193.45
2022-12-15T04:13:35.860Z,199.10
2022-12-15T04:14:09.294Z,183.55
2022-12-15T04:14:42.796Z,206.60
2022-12-15T04:15:15.670Z,207.40
2022-12-15T04:15:48.230Z,205.43
2022-12-15T04:16:20.779Z,188.70
2022-12-15T04:16:53.258Z,193.73
2022-12-15T04:17:25.570Z,182.90
2022-12-15T04:17:58.618Z,172.15
2022-12-15T04:18:31.349Z,207.05
2022-12-15T04:19:22.358Z,194.57
2022-12-15T04:20:10.111Z,201.00
2022-12-15T04:20:42.580Z,204.02
2022-12-15T04:21:16.135Z,203.02
2022-12-15T04:21:48.512Z,201.90
2022-12-15T04:22:20.970Z,196.70
2022-12-15T04:22:53.226Z,192.13
2022-12-15T04:23:25.507Z,197.48
2022-12-15T04:24:16.476Z,210.95
2022-12-15T04:25:07.385Z,207.02
2022-12-15T04:25:58.283Z,204.75
2022-12-15T04:26:49.254Z,200.55
2022-12-15T04:27:40.422Z,202.25
2022-12-15T04:28:31.397Z,203.60
2022-12-15T04:29:22.698Z,204.90
2022-12-15T04:30:13.602Z,210.73
2022-12-15T04:31:06.968Z,212.50
2022-12-15T04:31:57.716Z,224.25
2022-12-15T04:32:49.778Z,208.23
2022-12-15T04:33:42.300Z,216.73
2022-12-15T04:34:35.316Z,228.23
2022-12-15T04:35:26.388Z,210.68
2022-12-15T04:36:17.460Z,202.07
2022-12-15T04:37:09.542Z,200.40
2022-12-15T04:38:00.653Z,215.18
2022-12-15T04:38:51.912Z,205.00
2022-12-15T04:39:43.118Z,217.90
2022-12-15T04:40:34.322Z,220.25
2022-12-15T04:41:24.927Z,220.27
2022-12-15T04:42:18.045Z,195.57
2022-12-15T04:43:09.333Z,211.55
2022-12-15T04:44:00.708Z,205.52
2022-12-15T04:44:51.247Z,205.43
2022-12-15T04:45:43.774Z,221.85
2022-12-15T04:46:34.604Z,216.30
2022-12-15T04:47:25.858Z,212.05
2022-12-15T04:48:16.580Z,220.60
2022-12-15T04:49:07.411Z,208.95
2022-12-15T04:49:58.261Z,195.93
2022-12-15T04:50:49.790Z,218.50
2022-12-15T04:51:41.174Z,218.45
2022-12-15T04:52:32.106Z,222.25
2022-12-15T04:53:29.899Z,216.98
2022-12-15T04:54:21.066Z,209.82
2022-12-15T04:55:13.283Z,211.40
2022-12-15T04:56:04.476Z,217.35
2022-12-15T04:56:55.515Z,224.93
2022-12-15T04:57:46.344Z,214.35
2022-12-15T04:58:37.103Z,231.15
2022-12-15T04:59:27.601Z,206.13
2022-12-15T05:00:18.466Z,216.68
2022-12-15T05:01:10.948Z,212.55
2022-12-15T05:02:01.737Z,206.50
2022-12-15T05:02:52.366Z,234.25
2022-12-15T05:03:43.296Z,221.93
2022-12-15T05:04:34.276Z,216.70
2022-12-15T05:05:25.498Z,213.48
2022-12-15T05:06:16.635Z,206.05
2022-12-15T05:07:07.705Z,217.00
2022-12-15T05:07:58.346Z,223.55
2022-12-15T05:08:50.220Z,231.13
2022-12-15T05:09:41.495Z,226.20
2022-12-15T05:10:32.479Z,211.45
2022-12-15T05:11:23.276Z,208.40
2022-12-15T05:12:14.185Z,220.77
2022-12-15T05:13:05.153Z,212.23
2022-12-15T05:13:56.016Z,226.40
2022-12-15T05:14:49.445Z,219.35
2022-12-15T05:15:40.454Z,224.65
2022-12-15T05:16:31.564Z,211.38
2022-12-15T05:17:22.095Z,219.68
2022-12-15T05:18:13.252Z,212.43
2022-12-15T05:19:04.093Z,222.25
2022-12-15T05:19:54.925Z,215.05
2022-12-15T05:20:45.616Z,228.82
2022-12-15T05:21:41.133Z,220.25
2022-12-15T05:22:32.108Z,225.15
2022-12-15T05:23:22.872Z,216.65
2022-12-15T05:24:13.794Z,224.63
2022-12-15T05:25:04.785Z,220.45
2022-12-15T05:25:55.692Z,228.18
2022-12-15T05:26:52.157Z,228.27
2022-12-15T05:27:43.773Z,203.50
2022-12-15T05:28:34.508Z,228.52
2022-12-15T05:29:25.204Z,227.65
2022-12-15T05:30:16.279Z,217.07
2022-12-15T05:31:07.316Z,221.23
2022-12-15T05:31:58.688Z,227.52
2022-12-15T05:32:32.198Z,219.00
2022-12-15T05:33:05.025Z,224.68
2022-12-15T05:33:37.531Z,224.15
2022-12-15T05:34:09.832Z,213.05
2022-12-15T05:34:42.183Z,196.57
2022-12-15T05:35:14.682Z,224.32
2022-12-15T05:35:46.943Z,199.38
2022-12-15T05:36:19.599Z,210.65
2022-12-15T05:36:52.845Z,226.90
2022-12-15T05:37:25.155Z,213.15
2022-12-15T05:37:57.495Z,206.70
2022-12-15T05:38:29.883Z,219.20
2022-12-15T05:39:02.415Z,211.52
2022-12-15T05:39:35.072Z,221.73
2022-12-15T05:40:07.858Z,215.20
2022-12-15T05:40:40.356Z,214.30
2022-12-15T05:41:13.017Z,209.13
2022-12-15T05:41:45.509Z,216.55
2022-12-15T05:42:18.102Z,210.23
2022-12-15T05:42:50.569Z,215.60
2022-12-15T05:43:26.341Z,203.75
2022-12-15T05:43:59.301Z,208.98
2022-12-15T05:44:31.706Z,219.52
2022-12-15T05:45:05.338Z,219.32
2022-12-15T05:45:38.045Z,218.52
2022-12-15T05:46:10.363Z,201.38
2022-12-15T05:46:43.805Z,202.50
2022-12-15T05:47:16.339Z,195.02
2022-12-15T05:47:56.498Z,225.02
2022-12-15T05:48:28.823Z,205.40
2022-12-15T05:49:03.331Z,211.40
2022-12-15T05:49:36.056Z,207.35
2022-12-15T05:50:08.865Z,209.50
2022-12-15T05:50:41.302Z,199.05
2022-12-15T05:51:14.626Z,194.80
2022-12-15T05:51:47.678Z,206.95
2022-12-15T05:52:20.153Z,220.00
2022-12-15T05:52:52.850Z,198.68
2022-12-15T05:53:25.209Z,213.73
2022-12-15T05:53:57.495Z,203.80
2022-12-15T05:54:30.038Z,237.80
2022-12-15T05:55:02.534Z,207.63
2022-12-15T05:55:34.985Z,196.13
2022-12-15T05:56:11.527Z,197.35
2022-12-15T05:56:44.246Z,213.40
2022-12-15T05:57:16.928Z,200.68
2022-12-15T05:57:54.991Z,207.65
2022-12-15T05:58:27.269Z,214.93
2022-12-15T05:59:00.054Z,212.55
2022-12-15T05:59:32.607Z,216.50
2022-12-15T06:00:05.553Z,199.85
2022-12-15T06:00:44.021Z,215.40
2022-12-15T06:01:17.483Z,223.88
2022-12-15T06:01:50.185Z,202.40
2022-12-15T06:02:22.752Z,214.48
2022-12-15T06:02:55.343Z,209.23
2022-12-15T06:03:28.173Z,208.75
2022-12-15T06:04:01.810Z,202.35
2022-12-15T06:04:34.137Z,216.70
2022-12-15T06:05:07.687Z,220.02
2022-12-15T06:05:40.241Z,214.07
2022-12-15T06:06:13.511Z,192.77
2022-12-15T06:06:45.853Z,202.63
2022-12-15T06:07:18.045Z,208.32
2022-12-15T06:07:50.559Z,206.45
2022-12-15T06:08:24.332Z,193.63
2022-12-15T06:08:56.680Z,211.93
2022-12-15T06:09:29.222Z,212.82
2022-12-15T06:10:01.517Z,218.15
2022-12-15T06:10:33.919Z,210.85
2022-12-15T06:11:06.597Z,192.15
2022-12-15T06:11:38.855Z,204.60
2022-12-15T06:12:11.059Z,204.40
2022-12-15T06:12:43.984Z,203.15
2022-12-15T06:13:16.274Z,217.35
2022-12-15T06:13:48.665Z,210.98
2022-12-15T06:14:21.178Z,200.63
2022-12-15T06:14:53.655Z,202.63
2022-12-15T06:15:25.964Z,216.13
2022-12-15T06:15:59.199Z,226.13
2022-12-15T06:16:32.006Z,202.43
2022-12-15T06:17:04.675Z,202.65
2022-12-15T06:17:36.917Z,196.65
2022-12-15T06:18:09.230Z,207.57
2022-12-15T06:18:43.198Z,209.85
2022-12-15T06:19:22.441Z,200.27
2022-12-15T06:19:54.749Z,213.93
2022-12-15T06:20:27.140Z,224.38
2022-12-15T06:21:03.965Z,213.95
2022-12-15T06:21:36.457Z,220.40
2022-12-15T06:22:08.992Z,226.55
2022-12-15T06:22:45.293Z,219.00
2022-12-15T06:23:21.926Z,219.45
2022-12-15T06:23:55.699Z,235.25
2022-12-15T06:24:27.878Z,218.60
2022-12-15T06:25:00.159Z,229.93
2022-12-15T06:25:32.416Z,213.70
2022-12-15T06:26:11.957Z,208.98
2022-12-15T06:26:44.761Z,233.80
2022-12-15T06:27:17.105Z,211.57
2022-12-15T06:27:49.765Z,211.27
2022-12-15T06:28:24.332Z,220.95
2022-12-15T06:28:58.048Z,231.00
2022-12-15T06:29:30.527Z,203.02
2022-12-15T06:30:03.069Z,220.50
2022-12-15T06:30:35.534Z,222.52
2022-12-15T06:31:08.900Z,217.57
2022-12-15T06:31:41.584Z,217.02
2022-12-15T06:32:13.976Z,207.88
2022-12-15T06:32:46.502Z,225.55
2022-12-15T06:33:23.165Z,210.45
2022-12-15T06:34:01.289Z,217.57
2022-12-15T06:34:34.352Z,209.90
2022-12-15T06:35:06.831Z,227.75
2022-12-15T06:35:39.190Z,223.85
2022-12-15T06:36:13.153Z,212.35
2022-12-15T06:36:45.708Z,209.73
2022-12-15T06:37:18.153Z,228.32
2022-12-15T06:37:50.603Z,215.00
2022-12-15T06:38:23.251Z,219.55
2022-12-15T06:38:58.766Z,215.10
2022-12-15T06:39:31.267Z,211.43
2022-12-15T06:40:03.858Z,212.20
2022-12-15T06:40:38.142Z,219.45
2022-12-15T06:41:12.062Z,211.05
2022-12-15T06:41:44.741Z,206.68
2022-12-15T06:42:17.283Z,212.13
2022-12-15T06:42:49.596Z,212.25
2022-12-15T06:43:22.358Z,207.07
2022-12-15T06:43:58.426Z,212.82
2022-12-15T06:44:30.932Z,210.70
2022-12-15T06:45:04.406Z,208.38
2022-12-15T06:45:36.733Z,216.88
2022-12-15T06:46:09.556Z,201.07
2022-12-15T06:46:42.067Z,205.75
2022-12-15T06:47:14.371Z,213.18
2022-12-15T06:47:49.012Z,223.02
2022-12-15T06:48:22.361Z,228.57
2022-12-15T06:48:54.823Z,226.60
2022-12-15T06:49:27.112Z,220.55
2022-12-15T06:49:59.680Z,209.32
2022-12-15T06:50:32.062Z,206.48
2022-12-15T06:51:05.668Z,218.68
2022-12-15T06:51:38.152Z,226.43
2022-12-15T06:52:10.903Z,208.15
2022-12-15T06:52:43.446Z,214.50
2022-12-15T06:53:17.828Z,236.88
2022-12-15T06:53:52.833Z,238.95
2022-12-15T06:54:25.311Z,231.40
2022-12-15T06:54:57.654Z,224.30
2022-12-15T06:55:30.024Z,216.57
2022-12-15T06:56:03.259Z,223.02
2022-12-15T06:56:36.386Z,206.25
2022-12-15T06:57:08.785Z,217.80
2022-12-15T06:57:41.336Z,208.40
2022-12-15T06:58:14.376Z,216.07
2022-12-15T06:58:50.670Z,210.70
2022-12-15T06:59:22.893Z,223.60
2022-12-15T06:59:55.203Z,228.48
2022-12-15T07:00:28.140Z,217.73
2022-12-15T07:01:05.021Z,217.88
2022-12-15T07:01:37.695Z,223.73
2022-12-15T07:02:22.471Z,224.45
2022-12-15T07:02:59.549Z,226.57
2022-12-15T07:03:32.650Z,223.32
2022-12-15T07:04:06.194Z,211.55
2022-12-15T07:04:38.726Z,213.10
2022-12-15T07:05:11.171Z,226.32
2022-12-15T07:05:44.649Z,231.93
2022-12-15T07:06:17.274Z,233.23
2022-12-15T07:06:49.673Z,234.63
2022-12-15T07:07:22.009Z,227.32
2022-12-15T07:07:54.402Z,224.02
2022-12-15T07:08:32.234Z,244.95
2022-12-15T07:09:08.278Z,227.82
2022-12-15T07:09:40.674Z,224.27
2022-12-15T07:10:13.242Z,230.38
2022-12-15T07:10:45.589Z,235.40
2022-12-15T07:11:18.141Z,215.15
2022-12-15T07:11:51.538Z,235.38
2022-12-15T07:12:24.277Z,240.80
2022-12-15T07:12:57.052Z,219.00
2022-12-15T07:13:29.734Z,216.23
2022-12-15T07:14:02.541Z,209.52
2022-12-15T07:14:35.064Z,224.68
2022-12-15T07:15:08.371Z,223.23
2022-12-15T07:15:41.676Z,240.02
2022-12-15T07:16:14.156Z,251.85
2022-12-15T07:16:46.725Z,251.98
2022-12-15T07:17:19.360Z,254.23
2022-12-15T07:17:54.585Z,246.73
2022-12-15T07:18:26.947Z,240.90
2022-12-15T07:18:59.644Z,251.93
2022-12-15T07:19:31.931Z,235.85
2022-12-15T07:20:05.428Z,242.57
2022-12-15T07:20:37.886Z,234.27
2022-12-15T07:21:10.306Z,250.57
2022-12-15T07:21:42.841Z,238.70
2022-12-15T07:22:15.250Z,241.25
2022-12-15T07:22:51.074Z,244.13
2022-12-15T07:23:39.908Z,240.55
2022-12-15T07:24:15.968Z,246.57
2022-12-15T07:24:48.508Z,240.85
2022-12-15T07:25:21.177Z,250.63
2022-12-15T07:25:53.488Z,234.30
2022-12-15T07:26:25.861Z,250.48
2022-12-15T07:26:58.228Z,228.10
2022-12-15T07:27:30.697Z,243.80
2022-12-15T07:28:04.334Z,246.55
2022-12-15T07:28:37.598Z,237.90
2022-12-15T07:29:10.379Z,241.38
2022-12-15T07:29:43.037Z,244.48
2022-12-15T07:30:15.865Z,243.90
2022-12-15T07:30:48.434Z,245.43
2022-12-15T07:31:21.180Z,245.93
2022-12-15T07:31:53.720Z,247.00
2022-12-15T07:32:26.186Z,240.48
2022-12-15T07:32:59.088Z,230.15
2022-12-15T07:33:34.948Z,232.43
2022-12-15T07:34:08.130Z,245.05
2022-12-15T07:34:40.860Z,228.38
2022-12-15T07:35:13.281Z,229.38
2022-12-15T07:35:52.741Z,230.25
2022-12-15T07:36:25.466Z,244.63
2022-12-15T07:36:57.755Z,246.98
2022-12-15T07:37:30.332Z,240.07
2022-12-15T07:38:05.844Z,229.93
2022-12-15T07:38:38.231Z,242.13
2022-12-15T07:39:10.545Z,235.93
2022-12-15T07:39:43.556Z,248.45
2022-12-15T07:40:15.864Z,241.02
2022-12-15T07:40:49.340Z,247.25
2022-12-15T07:41:22.140Z,257.73
2022-12-15T07:41:54.629Z,247.52
2022-12-15T07:42:29.597Z,237.07
2022-12-15T07:43:02.333Z,253.55
2022-12-15T07:43:37.176Z,248.10
2022-12-15T07:44:10.548Z,226.35
2022-12-15T07:44:43.207Z,230.90
2022-12-15T07:45:15.499Z,234.73
2022-12-15T07:45:57.771Z,239.70
2022-12-15T07:46:30.400Z,238.52
2022-12-15T07:47:02.990Z,238.85
2022-12-15T07:47:36.265Z,225.90
2022-12-15T07:48:08.815Z,250.07
2022-12-15T07:48:41.578Z,243.75
2022-12-15T07:49:14.083Z,255.82
2022-12-15T07:49:46.667Z,218.95
2022-12-15T07:50:20.177Z,233.52
2022-12-15T07:51:02.754Z,244.00
2022-12-15T07:51:39.189Z,235.40
2022-12-15T07:52:11.506Z,244.45
2022-12-15T07:52:44.251Z,238.68
2022-12-15T07:53:16.671Z,237.48
2022-12-15T07:53:50.301Z,240.07
2022-12-15T07:54:22.734Z,239.30
2022-12-15T07:54:55.197Z,235.40
2022-12-15T07:55:50.140Z,241.85
2022-12-15T07:56:20.249Z,231.13
2022-12-15T07:56:52.609Z,228.45